Terminal Aerodrome Forecast
Issued by NWS Paducah, KY

Home | Current Version | Previous Version | Text Only | Print | Product List | Glossary On
Versions: 1 2 3 4 5 6 7 8 9 10 11 12 13 14 15 16 17 18 19 20 21 22 23 24 25 26 27 28 29
000
FTUS43 KPAH 151139
TAFEVV
TAF
KEVV 151139Z 1512/1612 05007KT P6SM OVC090
     FM151500 07010KT P6SM VCSH BKN035
     FM151800 07011KT P6SM OVC025
     FM152200 09005KT 6SM -SHRA OVC015
     FM160400 13005KT 5SM BR OVC007=

USA.gov is the U.S. government's official web portal to all federal, state and local government web resources and services.